Hove, Belgium
Current Conditions -  °F | °C
As of 4:20 PM on Wednesday 26 Nov 2014 (Local Time) from EBAW Reporting Station
Light Rain Light Rain  
Wind Chill: 41°   Ceiling: 1400
Heat Index: 45°   Visibility: 1.7mi
Dew Point: 41°   Wind: 7mph
Humidity: 87%   Direction: 100°E
Pressure: 29.85"   Gusts: NA
Location:  51.15°N, 4.47°E
Report Text: EBAW 261520Z 10006KT 2800 -RADZ BR FEW007 BKN014 07/05 Q1011 TEMPO BKN005
Loading
Personal Weather Stations






























Interactive Weather Map New forecast layout! Learn more

10-Day Weather Forecast

Advertisements
Track Severe Weather on mobile